createdAt,value
2022-11-12T00:00:52.966Z,4.78
2022-11-12T00:01:51.546Z,4.78
2022-11-12T00:03:20.024Z,4.97
2022-11-12T00:05:46.724Z,4.34
2022-11-12T00:06:51.495Z,4.34
2022-11-12T00:08:13.606Z,4.64
2022-11-12T00:10:40.044Z,3.83
2022-11-12T00:11:51.485Z,3.83
2022-11-12T00:13:06.503Z,5.09
2022-11-12T00:15:32.916Z,5.01
2022-11-12T00:16:51.477Z,5.01
2022-11-12T00:17:59.468Z,4.78
2022-11-12T00:20:26.014Z,4.59
2022-11-12T00:21:51.467Z,4.59
2022-11-12T00:22:52.465Z,4.56
2022-11-12T00:25:18.917Z,4.19
2022-11-12T00:26:51.478Z,4.19
2022-11-12T00:27:45.277Z,3.98
2022-11-12T00:30:12.069Z,4.36
2022-11-12T00:31:51.484Z,4.36
2022-11-12T00:32:38.710Z,4.32
2022-11-12T00:35:08.708Z,4.56
2022-11-12T00:36:51.528Z,4.56
2022-11-12T00:37:37.739Z,4.55
2022-11-12T00:40:04.540Z,4.38
2022-11-12T00:41:51.478Z,4.38
2022-11-12T00:42:30.863Z,3.09
2022-11-12T00:44:57.178Z,3.63
2022-11-12T00:46:51.487Z,3.63
2022-11-12T00:47:23.604Z,3.86
2022-11-12T00:49:49.968Z,4.24
2022-11-12T00:51:51.480Z,4.24
2022-11-12T00:52:16.385Z,4.01
2022-11-12T00:54:42.812Z,4.50
2022-11-12T00:56:51.460Z,4.50
2022-11-12T00:57:09.136Z,4.23
2022-11-12T00:59:35.487Z,4.05
2022-11-12T01:01:51.465Z,4.05
2022-11-12T01:02:02.015Z,4.29
2022-11-12T01:04:28.428Z,4.24
2022-11-12T01:06:51.532Z,4.24
2022-11-12T01:06:54.799Z,4.42
2022-11-12T01:09:21.191Z,4.30
2022-11-12T01:11:48.073Z,4.23
2022-11-12T01:11:51.476Z,4.23
2022-11-12T01:14:14.470Z,4.31
2022-11-12T01:16:42.773Z,4.43
2022-11-12T01:16:51.470Z,4.43
2022-11-12T01:19:11.584Z,4.52
2022-11-12T01:21:40.882Z,4.90
2022-11-12T01:21:51.468Z,4.90
2022-11-12T01:24:07.933Z,3.42
2022-11-12T01:26:34.964Z,4.99
2022-11-12T01:26:51.479Z,4.99
2022-11-12T01:29:01.588Z,4.74
2022-11-12T01:31:33.756Z,4.59
2022-11-12T01:31:51.461Z,4.59
2022-11-12T01:34:02.760Z,4.64
2022-11-12T01:36:34.513Z,4.79
2022-11-12T01:36:51.546Z,4.79
2022-11-12T01:39:01.059Z,5.15
2022-11-12T01:41:33.090Z,4.10
2022-11-12T01:41:51.468Z,4.10
2022-11-12T01:44:24.717Z,5.25
2022-11-12T01:47:02.831Z,4.89
2022-11-12T01:47:02.951Z,4.89
2022-11-12T01:50:00.883Z,5.30
2022-11-12T01:51:51.448Z,5.30
2022-11-12T01:52:34.795Z,5.22
2022-11-12T01:55:11.319Z,5.19
2022-11-12T01:56:51.463Z,5.19
2022-11-12T01:57:45.250Z,4.93
2022-11-12T02:00:13.800Z,4.56
2022-11-12T02:01:51.498Z,4.56
2022-11-12T02:02:40.792Z,5.29
2022-11-12T02:05:10.129Z,4.48
2022-11-12T02:06:51.490Z,4.48
2022-11-12T02:07:39.575Z,5.08
2022-11-12T02:10:07.489Z,4.96
2022-11-12T02:11:51.481Z,4.96
2022-11-12T02:12:53.137Z,5.00
2022-11-12T02:15:19.496Z,4.77
2022-11-12T02:16:51.635Z,4.77
2022-11-12T02:17:45.990Z,5.14
2022-11-12T02:20:13.952Z,4.89
2022-11-12T02:21:51.478Z,4.89
2022-11-12T02:22:40.365Z,5.19
2022-11-12T02:25:09.250Z,5.05
2022-11-12T02:26:51.466Z,5.05
2022-11-12T02:27:35.828Z,5.05
2022-11-12T02:30:02.246Z,5.26
2022-11-12T02:31:51.478Z,5.26
2022-11-12T02:32:28.543Z,4.80
2022-11-12T02:34:54.875Z,4.97
2022-11-12T02:36:51.576Z,4.97
2022-11-12T02:37:21.307Z,4.90
2022-11-12T02:39:47.602Z,5.22
2022-11-12T02:41:51.480Z,5.22
2022-11-12T02:42:14.016Z,5.08
2022-11-12T02:44:40.863Z,5.08
2022-11-12T02:46:51.477Z,5.08
2022-11-12T02:47:07.172Z,4.99
2022-11-12T02:49:33.565Z,4.78
2022-11-12T02:51:51.489Z,4.78
2022-11-12T02:51:59.963Z,5.38
2022-11-12T02:54:26.292Z,5.12
2022-11-12T02:56:52.687Z,5.29
2022-11-12T02:56:52.815Z,5.29
2022-11-12T02:59:19.014Z,4.60
2022-11-12T03:01:45.348Z,5.00
2022-11-12T03:01:51.472Z,5.00
2022-11-12T03:04:11.691Z,5.27
2022-11-12T03:06:38.139Z,4.91
2022-11-12T03:06:51.524Z,4.91
2022-11-12T03:09:04.509Z,5.17
2022-11-12T03:11:30.937Z,4.80
2022-11-12T03:11:51.481Z,4.80
2022-11-12T03:13:57.266Z,5.16
2022-11-12T03:16:23.595Z,4.91
2022-11-12T03:16:51.668Z,4.91
2022-11-12T03:18:49.966Z,4.72
2022-11-12T03:21:16.361Z,4.84
2022-11-12T03:21:51.476Z,4.84
2022-11-12T03:23:42.679Z,4.71
2022-11-12T03:26:09.056Z,4.90
2022-11-12T03:26:51.476Z,4.90
2022-11-12T03:28:35.543Z,4.58
2022-11-12T03:31:02.305Z,4.71
2022-11-12T03:31:51.472Z,4.71
2022-11-12T03:33:28.704Z,4.65
2022-11-12T03:35:55.151Z,4.78
2022-11-12T03:36:51.602Z,4.78
2022-11-12T03:38:21.534Z,4.71
2022-11-12T03:40:49.155Z,4.96
2022-11-12T03:41:51.481Z,4.96
2022-11-12T03:43:15.610Z,4.65
2022-11-12T03:45:41.955Z,4.82
2022-11-12T03:46:51.488Z,4.82
2022-11-12T03:48:08.385Z,3.48
2022-11-12T03:50:34.785Z,4.78
2022-11-12T03:51:51.485Z,4.78
2022-11-12T03:53:01.195Z,4.77
2022-11-12T03:55:29.346Z,4.40
2022-11-12T03:56:51.476Z,4.40
2022-11-12T03:57:57.198Z,4.68
2022-11-12T04:00:25.293Z,4.67
2022-11-12T04:01:51.527Z,4.67
2022-11-12T04:02:52.196Z,4.65
2022-11-12T04:05:37.673Z,4.59
2022-11-12T04:06:51.536Z,4.59
2022-11-12T04:08:26.064Z,4.36
2022-11-12T04:10:52.881Z,4.02
2022-11-12T04:11:51.485Z,4.02
2022-11-12T04:13:28.636Z,4.07
2022-11-12T04:16:28.860Z,3.92
2022-11-12T04:16:51.489Z,3.92
2022-11-12T04:19:16.455Z,4.30
2022-11-12T04:21:55.206Z,4.31
2022-11-12T04:21:55.337Z,4.31
2022-11-12T04:24:54.914Z,4.39
2022-11-12T04:26:51.465Z,4.39
2022-11-12T04:27:24.271Z,4.38
2022-11-12T04:30:10.943Z,3.76
2022-11-12T04:31:51.480Z,3.76
2022-11-12T04:32:40.110Z,4.08
2022-11-12T04:35:08.781Z,4.12
2022-11-12T04:36:51.513Z,4.12
2022-11-12T04:37:45.608Z,4.38
2022-11-12T04:40:42.670Z,4.31
2022-11-12T04:41:51.490Z,4.31
2022-11-12T04:43:31.207Z,4.04
2022-11-12T04:45:58.456Z,4.17
2022-11-12T04:46:51.475Z,4.17
2022-11-12T04:48:26.002Z,4.15
2022-11-12T04:50:58.678Z,4.05
2022-11-12T04:51:51.468Z,4.05
2022-11-12T04:53:25.717Z,3.71
2022-11-12T04:55:53.403Z,3.82
2022-11-12T04:56:51.481Z,3.82
2022-11-12T04:58:20.145Z,4.11
2022-11-12T05:00:47.201Z,2.60
2022-11-12T05:01:51.509Z,2.60
2022-11-12T05:03:13.593Z,4.07
2022-11-12T05:05:40.187Z,3.90
2022-11-12T05:06:51.578Z,3.90
2022-11-12T05:08:06.690Z,3.94
2022-11-12T05:10:33.216Z,3.53
2022-11-12T05:11:51.482Z,3.53
2022-11-12T05:12:59.699Z,3.20
2022-11-12T05:15:26.323Z,3.94
2022-11-12T05:16:51.527Z,3.94
2022-11-12T05:17:52.813Z,3.97
2022-11-12T05:20:19.179Z,3.62
2022-11-12T05:21:51.473Z,3.62
2022-11-12T05:22:59.053Z,4.05
2022-11-12T05:25:31.785Z,3.67
2022-11-12T05:26:51.496Z,3.67
2022-11-12T05:27:58.129Z,3.28
2022-11-12T05:30:24.444Z,3.99
2022-11-12T05:31:51.494Z,3.99
2022-11-12T05:32:51.213Z,3.51
2022-11-12T05:35:17.524Z,3.57
2022-11-12T05:36:51.538Z,3.57
2022-11-12T05:37:43.997Z,3.88
2022-11-12T05:40:10.596Z,4.00
2022-11-12T05:42:11.995Z,4.00
2022-11-12T05:42:37.180Z,3.52
2022-11-12T05:45:04.258Z,3.34
2022-11-12T05:46:51.483Z,3.34
2022-11-12T05:47:30.619Z,3.87
2022-11-12T05:49:56.996Z,2.98
2022-11-12T05:51:51.508Z,2.98
2022-11-12T05:52:23.413Z,3.81
2022-11-12T05:54:49.863Z,3.22
2022-11-12T05:56:51.493Z,3.22
2022-11-12T05:57:16.310Z,3.07
2022-11-12T05:59:42.648Z,3.02
2022-11-12T06:01:51.486Z,3.02
2022-11-12T06:02:09.005Z,3.32
2022-11-12T06:04:35.439Z,3.47
2022-11-12T06:06:51.545Z,3.47
2022-11-12T06:07:04.031Z,3.67
2022-11-12T06:09:30.632Z,3.66
2022-11-12T06:11:51.491Z,3.66
2022-11-12T06:11:57.131Z,3.34
2022-11-12T06:14:23.589Z,2.83
2022-11-12T06:16:49.972Z,3.56
2022-11-12T06:16:51.710Z,3.56
2022-11-12T06:19:16.278Z,3.13
2022-11-12T06:21:42.699Z,3.14
2022-11-12T06:21:51.488Z,3.14
2022-11-12T06:24:09.651Z,3.37
2022-11-12T06:26:37.800Z,3.32
2022-11-12T06:26:51.487Z,3.32
2022-11-12T06:29:04.219Z,3.34
2022-11-12T06:31:30.560Z,3.56
2022-11-12T06:31:51.489Z,3.56
2022-11-12T06:33:56.974Z,3.03
2022-11-12T06:36:23.386Z,3.32
2022-11-12T06:36:51.545Z,3.32
2022-11-12T06:38:50.005Z,3.51
2022-11-12T06:41:16.339Z,3.46
2022-11-12T06:41:51.597Z,3.46
2022-11-12T06:43:42.769Z,3.38
2022-11-12T06:46:14.433Z,3.75
2022-11-12T06:46:51.485Z,3.75
2022-11-12T06:48:41.459Z,3.80
2022-11-12T06:51:15.501Z,3.79
2022-11-12T06:51:51.486Z,3.79
2022-11-12T06:53:41.834Z,3.78
2022-11-12T06:56:08.672Z,3.78
2022-11-12T06:56:51.506Z,3.78
2022-11-12T06:58:35.618Z,3.35
2022-11-12T07:01:13.464Z,3.27
2022-11-12T07:01:51.512Z,3.27
2022-11-12T07:03:41.807Z,3.81
2022-11-12T07:06:14.772Z,3.82
2022-11-12T07:06:51.576Z,3.82
2022-11-12T07:08:41.744Z,3.84
2022-11-12T07:11:08.350Z,3.52
2022-11-12T07:11:51.496Z,3.52
2022-11-12T07:13:35.834Z,3.02
2022-11-12T07:16:03.575Z,3.75
2022-11-12T07:16:51.616Z,3.75
2022-11-12T07:18:30.795Z,3.93
2022-11-12T07:20:59.234Z,3.98
2022-11-12T07:21:51.516Z,3.98
2022-11-12T07:23:26.208Z,3.74
2022-11-12T07:26:20.969Z,4.09
2022-11-12T07:26:51.484Z,4.09
2022-11-12T07:28:48.679Z,4.13
2022-11-12T07:31:16.378Z,3.88
2022-11-12T07:31:51.514Z,3.88
2022-11-12T07:33:43.755Z,3.24
2022-11-12T07:36:12.868Z,4.18
2022-11-12T07:36:51.568Z,4.18
2022-11-12T07:38:41.254Z,3.85
2022-11-12T07:41:22.605Z,4.15
2022-11-12T07:41:51.524Z,4.15
2022-11-12T07:43:51.197Z,4.35
2022-11-12T07:46:23.056Z,4.40
2022-11-12T07:46:51.494Z,4.40
2022-11-12T07:48:49.699Z,4.49
2022-11-12T07:51:18.481Z,4.51
2022-11-12T07:51:51.482Z,4.51
2022-11-12T07:53:46.053Z,4.30
2022-11-12T07:56:17.424Z,4.03
2022-11-12T07:56:51.486Z,4.03
2022-11-12T07:58:44.600Z,4.51
2022-11-12T08:01:34.254Z,4.89
2022-11-12T08:01:51.555Z,4.89
2022-11-12T08:04:02.100Z,4.98
2022-11-12T08:06:30.269Z,5.09
2022-11-12T08:06:51.635Z,5.09
2022-11-12T08:08:58.120Z,4.74
2022-11-12T08:11:24.561Z,5.30
2022-11-12T08:11:51.502Z,5.30
2022-11-12T08:13:51.341Z,5.31
2022-11-12T08:16:18.008Z,4.83
2022-11-12T08:16:51.539Z,4.83
2022-11-12T08:18:47.676Z,5.00
2022-11-12T08:21:16.245Z,5.34
2022-11-12T08:21:51.495Z,5.34
2022-11-12T08:23:42.711Z,5.68
2022-11-12T08:26:12.498Z,5.41
2022-11-12T08:26:51.497Z,5.41
2022-11-12T08:28:39.501Z,5.65
2022-11-12T08:31:12.063Z,6.15
2022-11-12T08:31:51.527Z,6.15
2022-11-12T08:33:39.181Z,6.24
2022-11-12T08:36:07.691Z,5.97
2022-11-12T08:36:51.619Z,5.97
2022-11-12T08:38:34.655Z,5.96
2022-11-12T08:41:02.696Z,6.56
2022-11-12T08:41:51.507Z,6.56
2022-11-12T08:43:29.046Z,6.50
2022-11-12T08:45:59.655Z,5.60
2022-11-12T08:46:51.485Z,5.60
2022-11-12T08:48:27.756Z,6.49
2022-11-12T08:50:54.852Z,6.47
2022-11-12T08:51:51.499Z,6.47
2022-11-12T08:53:23.223Z,7.11
2022-11-12T08:55:53.689Z,7.21
2022-11-12T08:56:51.497Z,7.21
2022-11-12T08:58:20.171Z,6.97
2022-11-12T09:00:46.769Z,6.84
2022-11-12T09:01:51.562Z,6.84
2022-11-12T09:03:15.468Z,6.84
2022-11-12T09:05:42.097Z,7.52
2022-11-12T09:06:54.068Z,7.52
2022-11-12T09:08:14.702Z,7.67
2022-11-12T09:10:43.515Z,7.79
2022-11-12T09:11:51.542Z,7.79
2022-11-12T09:13:10.238Z,7.82
2022-11-12T09:15:38.356Z,7.84
2022-11-12T09:16:52.005Z,7.84
2022-11-12T09:18:12.146Z,7.69
2022-11-12T09:20:38.514Z,7.19
2022-11-12T09:21:51.597Z,7.19
2022-11-12T09:23:10.963Z,8.22
2022-11-12T09:25:37.866Z,8.07
2022-11-12T09:26:51.638Z,8.07
2022-11-12T09:28:12.745Z,8.11
2022-11-12T09:30:43.473Z,8.37
2022-11-12T09:31:51.662Z,8.37
2022-11-12T09:33:09.840Z,8.54
2022-11-12T09:35:36.184Z,8.64
2022-11-12T09:36:51.708Z,8.64
2022-11-12T09:38:02.519Z,8.62
2022-11-12T09:40:52.656Z,8.75
2022-11-12T09:41:51.664Z,8.75
2022-11-12T09:43:25.629Z,8.47
2022-11-12T09:46:13.557Z,8.89
2022-11-12T09:46:51.619Z,8.89
2022-11-12T09:48:47.461Z,9.09
2022-11-12T09:51:25.006Z,9.21
2022-11-12T09:51:51.631Z,9.21
2022-11-12T09:54:11.147Z,9.27
2022-11-12T09:56:37.529Z,8.17
2022-11-12T09:56:51.638Z,8.17
2022-11-12T09:59:03.955Z,8.47
2022-11-12T10:01:58.157Z,9.59
2022-11-12T10:01:58.457Z,9.59
2022-11-12T10:04:42.979Z,10.06
2022-11-12T10:06:51.655Z,10.06
2022-11-12T10:07:37.004Z,10.01
2022-11-12T10:10:15.383Z,10.13
2022-11-12T10:11:51.625Z,10.13
2022-11-12T10:12:47.525Z,10.16
2022-11-12T10:15:58.498Z,10.02
2022-11-12T10:16:51.682Z,10.02
2022-11-12T10:19:05.318Z,10.07
2022-11-12T10:21:40.998Z,9.76
2022-11-12T10:21:51.621Z,9.76
2022-11-12T10:24:10.187Z,10.50
2022-11-12T10:26:38.813Z,10.66
2022-11-12T10:26:51.654Z,10.66
2022-11-12T10:29:22.463Z,10.47
2022-11-12T10:31:48.827Z,10.25
2022-11-12T10:31:51.630Z,10.25
2022-11-12T10:34:15.184Z,10.90
2022-11-12T10:37:18.918Z,10.87
2022-11-12T10:37:19.071Z,10.87
2022-11-12T10:39:47.542Z,10.96
2022-11-12T10:41:51.613Z,10.96
2022-11-12T10:42:16.449Z,10.74
2022-11-12T10:44:43.919Z,10.98
2022-11-12T10:46:51.633Z,10.98
2022-11-12T10:47:38.646Z,11.18
2022-11-12T10:50:08.022Z,11.41
2022-11-12T10:51:51.664Z,11.41
2022-11-12T10:52:35.443Z,11.26
2022-11-12T10:55:28.290Z,11.09
2022-11-12T10:56:55.494Z,11.09
2022-11-12T10:58:13.170Z,11.43
2022-11-12T11:01:07.357Z,10.40
2022-11-12T11:01:51.695Z,10.40
2022-11-12T11:03:36.312Z,11.21
2022-11-12T11:06:18.256Z,11.57
2022-11-12T11:06:51.703Z,11.57
2022-11-12T11:08:50.819Z,11.69
2022-11-12T11:11:19.566Z,11.86
2022-11-12T11:11:51.633Z,11.86
2022-11-12T11:13:51.439Z,11.90
2022-11-12T11:16:27.403Z,11.95
2022-11-12T11:16:51.833Z,11.95
2022-11-12T11:19:00.021Z,11.89
2022-11-12T11:21:42.240Z,11.88
2022-11-12T11:21:51.647Z,11.88
2022-11-12T11:24:29.968Z,12.25
2022-11-12T11:26:51.642Z,12.25
2022-11-12T11:27:12.227Z,12.34
2022-11-12T11:29:51.672Z,12.43
2022-11-12T11:31:51.626Z,12.43
2022-11-12T11:32:37.785Z,12.64
2022-11-12T11:35:17.969Z,12.75
2022-11-12T11:36:51.738Z,12.75
2022-11-12T11:38:01.416Z,12.35
2022-11-12T11:40:31.845Z,12.77
2022-11-12T11:41:51.656Z,12.77
2022-11-12T11:43:11.488Z,13.02
2022-11-12T11:46:11.103Z,13.25
2022-11-12T11:46:51.640Z,13.25
2022-11-12T11:48:49.422Z,13.04
2022-11-12T11:51:40.075Z,13.40
2022-11-12T11:51:51.635Z,13.40
2022-11-12T11:54:13.355Z,13.37
2022-11-12T11:56:44.385Z,13.42
2022-11-12T11:56:51.644Z,13.42
2022-11-12T11:59:23.021Z,13.43
2022-11-12T12:02:10.741Z,12.71
2022-11-12T12:02:10.859Z,12.71
2022-11-12T12:04:51.576Z,13.46
2022-11-12T12:06:51.705Z,13.46
2022-11-12T12:07:41.733Z,13.49
2022-11-12T12:10:09.550Z,13.61
2022-11-12T12:11:51.644Z,13.61
2022-11-12T12:12:47.844Z,13.71
2022-11-12T12:15:23.263Z,13.73
2022-11-12T12:16:51.820Z,13.73
2022-11-12T12:18:03.883Z,13.73
2022-11-12T12:20:59.797Z,13.40
2022-11-12T12:21:51.640Z,13.40
2022-11-12T12:23:33.555Z,13.40
2022-11-12T12:26:03.272Z,13.83
2022-11-12T12:26:51.668Z,13.83
2022-11-12T12:28:55.316Z,13.87
2022-11-12T12:31:27.536Z,13.74
2022-11-12T12:31:51.645Z,13.74
2022-11-12T12:33:58.756Z,13.73
2022-11-12T12:36:27.021Z,13.86
2022-11-12T12:36:51.660Z,13.86
2022-11-12T12:38:53.354Z,13.85
2022-11-12T12:41:27.840Z,13.89
2022-11-12T12:41:51.672Z,13.89
2022-11-12T12:43:59.271Z,13.01
2022-11-12T12:46:30.594Z,13.94
2022-11-12T12:46:51.650Z,13.94
2022-11-12T12:48:59.792Z,14.08
2022-11-12T12:51:31.124Z,13.41
2022-11-12T12:51:55.572Z,13.41
2022-11-12T12:53:57.677Z,14.02
2022-11-12T12:56:24.003Z,14.18
2022-11-12T12:56:51.630Z,14.18
2022-11-12T12:58:50.837Z,14.23
2022-11-12T13:01:20.776Z,14.28
2022-11-12T13:01:51.655Z,14.28
2022-11-12T13:04:08.592Z,14.34
2022-11-12T13:06:39.593Z,12.55
2022-11-12T13:06:51.667Z,12.55
2022-11-12T13:09:17.824Z,14.23
2022-11-12T13:12:02.652Z,14.24
2022-11-12T13:12:02.794Z,14.24
2022-11-12T13:14:34.896Z,14.20
2022-11-12T13:16:51.633Z,14.20
2022-11-12T13:17:07.010Z,14.24
2022-11-12T13:19:39.517Z,14.30
2022-11-12T13:21:51.642Z,14.30
2022-11-12T13:22:17.827Z,14.32
2022-11-12T13:25:24.799Z,14.03
2022-11-12T13:26:51.645Z,14.03
2022-11-12T13:27:51.060Z,14.28
2022-11-12T13:30:20.731Z,14.29
2022-11-12T13:31:51.634Z,14.29
2022-11-12T13:32:47.049Z,14.20
2022-11-12T13:35:22.456Z,14.10
2022-11-12T13:36:51.681Z,14.10
2022-11-12T13:38:04.160Z,14.14
2022-11-12T13:40:30.545Z,13.75
2022-11-12T13:41:51.648Z,13.75
2022-11-12T13:43:28.497Z,14.02
2022-11-12T13:46:02.673Z,13.66
2022-11-12T13:46:51.647Z,13.66
2022-11-12T13:48:45.084Z,13.80
2022-11-12T13:51:14.244Z,13.72
2022-11-12T13:51:51.718Z,13.72
2022-11-12T13:53:41.848Z,13.52
2022-11-12T13:56:11.356Z,13.54
2022-11-12T13:56:51.648Z,13.54
2022-11-12T13:58:41.427Z,13.15
2022-11-12T14:01:08.066Z,12.77
2022-11-12T14:01:51.634Z,12.77
2022-11-12T14:03:47.052Z,13.33
2022-11-12T14:06:34.757Z,13.11
2022-11-12T14:06:51.697Z,13.11
2022-11-12T14:09:30.678Z,13.14
2022-11-12T14:11:51.642Z,13.14
2022-11-12T14:12:12.317Z,13.06
2022-11-12T14:15:04.051Z,13.00
2022-11-12T14:16:51.661Z,13.00
2022-11-12T14:17:50.726Z,12.64
2022-11-12T14:20:29.224Z,12.63
2022-11-12T14:21:51.683Z,12.63
2022-11-12T14:22:55.966Z,12.56
2022-11-12T14:25:27.542Z,12.43
2022-11-12T14:26:51.658Z,12.43
2022-11-12T14:27:55.790Z,12.88
2022-11-12T14:30:31.923Z,12.72
2022-11-12T14:31:51.682Z,12.72
2022-11-12T14:33:00.749Z,12.36
2022-11-12T14:35:27.301Z,12.79
2022-11-12T14:36:51.685Z,12.79
2022-11-12T14:37:58.715Z,12.45
2022-11-12T14:40:27.571Z,12.56
2022-11-12T14:41:51.645Z,12.56
2022-11-12T14:42:54.507Z,12.61
2022-11-12T14:45:23.066Z,12.87
2022-11-12T14:46:51.682Z,12.87
2022-11-12T14:47:52.519Z,12.67
2022-11-12T14:50:29.277Z,12.63
2022-11-12T14:51:51.657Z,12.63
2022-11-12T14:53:01.947Z,11.70
2022-11-12T14:55:30.447Z,12.69
2022-11-12T14:56:51.699Z,90.96
2022-11-12T14:58:00.279Z,11.88
2022-11-12T15:00:32.529Z,12.71
2022-11-12T15:02:27.855Z,12.71
2022-11-12T15:03:01.133Z,12.67
2022-11-12T15:05:28.125Z,11.69
2022-11-12T15:06:51.672Z,11.69
2022-11-12T15:08:11.569Z,12.43
2022-11-12T15:10:41.134Z,12.71
2022-11-12T15:11:51.663Z,12.71
2022-11-12T15:13:21.556Z,12.74
2022-11-12T15:16:08.350Z,12.74
2022-11-12T15:16:51.653Z,12.74
2022-11-12T15:18:36.998Z,12.61
2022-11-12T15:21:11.014Z,12.78
2022-11-12T15:21:51.935Z,12.78
2022-11-12T15:23:50.032Z,12.75
2022-11-12T15:26:36.224Z,12.66
2022-11-12T15:26:51.660Z,12.66
2022-11-12T15:29:11.483Z,12.58
2022-11-12T15:31:49.548Z,11.92
2022-11-12T15:31:51.656Z,11.92
2022-11-12T15:34:45.280Z,12.45
2022-11-12T15:36:51.699Z,12.45
2022-11-12T15:37:19.173Z,11.30
2022-11-12T15:39:53.567Z,12.11
2022-11-12T15:41:51.666Z,12.11
2022-11-12T15:42:29.127Z,12.16
2022-11-12T15:45:01.929Z,11.52
2022-11-12T15:46:51.668Z,11.52
2022-11-12T15:47:28.585Z,11.46
2022-11-12T15:49:58.624Z,11.40
2022-11-12T15:51:51.651Z,11.40
2022-11-12T15:52:25.284Z,11.36
2022-11-12T15:54:51.692Z,11.13
2022-11-12T15:56:51.668Z,11.13
2022-11-12T15:57:25.119Z,11.93
2022-11-12T16:00:07.841Z,11.90
2022-11-12T16:01:51.663Z,11.90
2022-11-12T16:02:35.048Z,11.37
2022-11-12T16:05:01.439Z,11.78
2022-11-12T16:06:51.796Z,11.78
2022-11-12T16:07:27.857Z,11.17
2022-11-12T16:09:54.285Z,11.45
2022-11-12T16:11:51.667Z,11.45
2022-11-12T16:12:20.817Z,11.31
2022-11-12T16:14:47.196Z,11.41
2022-11-12T16:16:51.666Z,11.41
2022-11-12T16:17:15.825Z,10.82
2022-11-12T16:19:42.339Z,11.23
2022-11-12T16:21:51.700Z,11.23
2022-11-12T16:22:12.611Z,11.14
2022-11-12T16:24:42.509Z,10.64
2022-11-12T16:26:51.668Z,10.64
2022-11-12T16:27:14.123Z,10.95
2022-11-12T16:29:41.001Z,10.60
2022-11-12T16:31:51.685Z,10.60
2022-11-12T16:32:12.237Z,10.60
2022-11-12T16:34:38.586Z,10.37
2022-11-12T16:36:51.734Z,10.37
2022-11-12T16:37:04.899Z,10.59
2022-11-12T16:39:31.530Z,10.38
2022-11-12T16:41:51.663Z,10.38
2022-11-12T16:41:57.898Z,10.35
2022-11-12T16:44:24.273Z,8.64
2022-11-12T16:46:50.686Z,10.80
2022-11-12T16:46:51.685Z,10.80
2022-11-12T16:49:17.244Z,10.64
2022-11-12T16:51:43.616Z,10.90
2022-11-12T16:51:51.669Z,10.90
2022-11-12T16:54:10.362Z,10.89
2022-11-12T16:56:37.323Z,10.71
2022-11-12T16:56:51.667Z,10.71
2022-11-12T16:59:04.457Z,10.52
2022-11-12T17:01:34.007Z,10.86
2022-11-12T17:01:51.672Z,10.86
2022-11-12T17:04:00.345Z,10.26
2022-11-12T17:06:38.784Z,10.83
2022-11-12T17:06:51.732Z,10.83
2022-11-12T17:09:07.277Z,10.73
2022-11-12T17:11:34.945Z,10.33
2022-11-12T17:11:51.676Z,10.33
2022-11-12T17:14:02.362Z,10.61
2022-11-12T17:16:29.313Z,9.89
2022-11-12T17:16:51.713Z,9.89
2022-11-12T17:18:57.311Z,10.24
2022-11-12T17:21:23.956Z,10.55
2022-11-12T17:21:51.861Z,10.55
2022-11-12T17:23:51.012Z,10.54
2022-11-12T17:26:20.766Z,10.58
2022-11-12T17:26:51.732Z,10.58
2022-11-12T17:28:48.410Z,10.43
2022-11-12T17:31:19.286Z,10.32
2022-11-12T17:31:51.692Z,10.32
2022-11-12T17:33:50.377Z,10.04
2022-11-12T17:36:25.946Z,10.31
2022-11-12T17:36:51.772Z,10.31
2022-11-12T17:39:00.158Z,10.26
2022-11-12T17:41:30.680Z,9.56
2022-11-12T17:41:51.669Z,9.56
2022-11-12T17:43:58.602Z,9.94
2022-11-12T17:46:25.564Z,10.08
2022-11-12T17:46:51.697Z,10.08
2022-11-12T17:48:52.719Z,10.07
2022-11-12T17:51:21.336Z,9.92
2022-11-12T17:51:51.687Z,9.92
2022-11-12T17:53:48.177Z,10.28
2022-11-12T17:56:17.327Z,10.15
2022-11-12T17:56:51.695Z,10.15
2022-11-12T17:58:47.845Z,9.92
2022-11-12T18:01:25.823Z,10.17
2022-11-12T18:01:51.695Z,10.17
2022-11-12T18:03:54.153Z,9.79
2022-11-12T18:06:23.350Z,9.64
2022-11-12T18:06:51.755Z,9.64
2022-11-12T18:08:56.052Z,10.23
2022-11-12T18:11:23.680Z,10.28
2022-11-12T18:11:51.684Z,10.28
2022-11-12T18:13:49.987Z,10.24
2022-11-12T18:16:20.011Z,9.89
2022-11-12T18:16:51.693Z,9.89
2022-11-12T18:18:46.455Z,10.07
2022-11-12T18:21:13.682Z,9.63
2022-11-12T18:21:51.731Z,9.63
2022-11-12T18:23:42.106Z,10.18
2022-11-12T18:26:08.436Z,9.97
2022-11-12T18:26:51.738Z,9.97
2022-11-12T18:28:34.810Z,9.44
2022-11-12T18:31:06.096Z,9.87
2022-11-12T18:31:51.696Z,9.87
2022-11-12T18:33:32.723Z,9.80
2022-11-12T18:36:06.824Z,10.17
2022-11-12T18:36:51.756Z,10.17
2022-11-12T18:38:34.692Z,9.93
2022-11-12T18:41:02.040Z,9.92
2022-11-12T18:41:51.718Z,9.92
2022-11-12T18:43:28.939Z,9.81
2022-11-12T18:46:02.049Z,9.57
2022-11-12T18:46:51.706Z,9.57
2022-11-12T18:48:30.582Z,8.96
2022-11-12T18:51:02.637Z,9.58
2022-11-12T18:51:51.914Z,9.58
2022-11-12T18:53:30.337Z,9.70
2022-11-12T18:56:00.717Z,9.93
2022-11-12T18:56:51.709Z,9.93
2022-11-12T18:58:33.664Z,9.87
2022-11-12T19:01:06.406Z,8.59
2022-11-12T19:01:51.720Z,8.59
2022-11-12T19:03:33.099Z,9.38
2022-11-12T19:06:00.901Z,9.99
2022-11-12T19:06:51.788Z,9.99
2022-11-12T19:08:27.387Z,9.89
2022-11-12T19:10:58.466Z,9.59
2022-11-12T19:11:51.695Z,9.59
2022-11-12T19:13:25.532Z,9.88
2022-11-12T19:15:52.526Z,9.71
2022-11-12T19:16:51.709Z,9.71
2022-11-12T19:18:19.107Z,9.21
2022-11-12T19:20:47.636Z,9.87
2022-11-12T19:21:52.019Z,9.87
2022-11-12T19:23:14.168Z,9.79
2022-11-12T19:25:40.553Z,9.18
2022-11-12T19:26:51.706Z,9.18
2022-11-12T19:28:06.883Z,9.35
2022-11-12T19:30:33.303Z,9.15
2022-11-12T19:31:51.707Z,9.15
2022-11-12T19:32:59.651Z,9.62
2022-11-12T19:35:25.984Z,9.72
2022-11-12T19:37:11.813Z,9.72
2022-11-12T19:37:52.389Z,9.11
2022-11-12T19:40:18.862Z,8.57
2022-11-12T19:41:51.729Z,8.57
2022-11-12T19:42:46.857Z,9.12
2022-11-12T19:45:13.202Z,9.79
2022-11-12T19:46:51.698Z,9.79
2022-11-12T19:47:40.376Z,9.82
2022-11-12T19:50:07.340Z,9.54
2022-11-12T19:51:51.696Z,9.54
2022-11-12T19:52:33.683Z,9.60
2022-11-12T19:55:00.888Z,8.90
2022-11-12T19:56:51.705Z,8.90
2022-11-12T19:57:28.957Z,9.51
2022-11-12T19:59:55.385Z,9.06
2022-11-12T20:01:51.762Z,9.06
2022-11-12T20:02:21.704Z,9.76
2022-11-12T20:04:48.049Z,9.72
2022-11-12T20:06:51.816Z,9.72
2022-11-12T20:07:14.506Z,9.16
2022-11-12T20:09:40.889Z,9.12
2022-11-12T20:11:51.920Z,9.12
2022-11-12T20:12:07.688Z,9.43
2022-11-12T20:14:34.111Z,9.18
2022-11-12T20:16:51.694Z,9.18
2022-11-12T20:17:00.432Z,9.10
2022-11-12T20:19:26.798Z,8.93
2022-11-12T20:21:51.927Z,8.93
2022-11-12T20:21:53.110Z,9.04
2022-11-12T20:24:19.566Z,9.42
2022-11-12T20:26:45.896Z,9.20
2022-11-12T20:26:51.706Z,9.20
2022-11-12T20:29:12.219Z,8.97
2022-11-12T20:31:38.613Z,9.18
2022-11-12T20:31:51.711Z,9.18
2022-11-12T20:34:04.968Z,8.46
2022-11-12T20:36:31.403Z,8.48
2022-11-12T20:36:51.800Z,8.48
2022-11-12T20:38:58.400Z,9.15
2022-11-12T20:41:26.645Z,8.99
2022-11-12T20:41:51.731Z,8.99
2022-11-12T20:43:58.424Z,9.01
2022-11-12T20:46:26.129Z,9.28
2022-11-12T20:46:51.735Z,9.28
2022-11-12T20:48:54.679Z,8.95
2022-11-12T20:51:25.270Z,9.17
2022-11-12T20:51:51.715Z,9.17
2022-11-12T20:54:00.001Z,8.62
2022-11-12T20:56:28.808Z,8.95
2022-11-12T20:56:51.757Z,8.95
2022-11-12T20:58:55.253Z,8.48
2022-11-12T21:01:23.978Z,8.71
2022-11-12T21:01:51.694Z,8.71
2022-11-12T21:03:50.996Z,8.51
2022-11-12T21:06:20.276Z,8.89
2022-11-12T21:06:51.741Z,8.89
2022-11-12T21:08:47.005Z,8.51
2022-11-12T21:11:15.648Z,8.54
2022-11-12T21:11:51.707Z,8.54
2022-11-12T21:13:42.719Z,8.68
2022-11-12T21:16:11.125Z,8.70
2022-11-12T21:16:51.717Z,8.70
2022-11-12T21:18:38.527Z,8.75
2022-11-12T21:21:09.299Z,8.88
2022-11-12T21:21:51.888Z,8.88
2022-11-12T21:23:38.577Z,8.85
2022-11-12T21:26:07.869Z,8.74
2022-11-12T21:26:51.704Z,8.74
2022-11-12T21:28:36.921Z,8.42
2022-11-12T21:31:09.139Z,8.55
2022-11-12T21:31:51.757Z,8.55
2022-11-12T21:33:35.796Z,8.27
2022-11-12T21:36:03.651Z,8.20
2022-11-12T21:36:51.724Z,8.20
2022-11-12T21:38:30.368Z,8.46
2022-11-12T21:41:08.504Z,8.36
2022-11-12T21:41:51.700Z,8.36
2022-11-12T21:43:39.726Z,8.26
2022-11-12T21:46:10.696Z,8.11
2022-11-12T21:46:51.751Z,8.11
2022-11-12T21:48:37.154Z,8.14
2022-11-12T21:51:09.141Z,7.73
2022-11-12T21:51:51.700Z,7.73
2022-11-12T21:53:35.500Z,7.68
2022-11-12T21:56:06.907Z,7.93
2022-11-12T21:56:51.699Z,7.93
2022-11-12T21:58:33.522Z,7.79
2022-11-12T22:01:25.003Z,7.98
2022-11-12T22:01:51.702Z,7.98